sensor_id;sensor_type;location;lat;lon;timestamp;pressure;altitude;pressure_sealevel;temperature;humidity
63552;BME280;49698;48.072;7.800;2022-07-29T00:00:18;99132.50;;;20.09;72.86
63552;BME280;49698;48.072;7.800;2022-07-29T00:02:46;99135.53;;;20.04;73.04
63552;BME280;49698;48.072;7.800;2022-07-29T00:05:14;99125.31;;;20.01;72.98
63552;BME280;49698;48.072;7.800;2022-07-29T00:07:43;99139.66;;;19.98;73.05
63552;BME280;49698;48.072;7.800;2022-07-29T00:10:11;99127.94;;;19.97;72.91
63552;BME280;49698;48.072;7.800;2022-07-29T00:12:39;99121.69;;;19.97;72.84
63552;BME280;49698;48.072;7.800;2022-07-29T00:15:08;99126.72;;;19.95;73.23
63552;BME280;49698;48.072;7.800;2022-07-29T00:17:36;99124.69;;;19.92;73.16
63552;BME280;49698;48.072;7.800;2022-07-29T00:20:05;99114.47;;;19.89;73.11
63552;BME280;49698;48.072;7.800;2022-07-29T00:22:36;99128.81;;;19.86;73.67
63552;BME280;49698;48.072;7.800;2022-07-29T00:25:07;99126.34;;;19.81;73.58
63552;BME280;49698;48.072;7.800;2022-07-29T00:27:36;99126.25;;;19.77;73.73
63552;BME280;49698;48.072;7.800;2022-07-29T00:30:05;99121.09;;;19.72;73.88
63552;BME280;49698;48.072;7.800;2022-07-29T00:32:33;99122.56;;;19.69;73.90
63552;BME280;49698;48.072;7.800;2022-07-29T00:35:02;99111.56;;;19.66;74.12
63552;BME280;49698;48.072;7.800;2022-07-29T00:37:47;99113.06;;;19.63;74.13
63552;BME280;49698;48.072;7.800;2022-07-29T00:40:17;99116.47;;;19.60;74.34
63552;BME280;49698;48.072;7.800;2022-07-29T00:42:46;99107.81;;;19.58;74.28
63552;BME280;49698;48.072;7.800;2022-07-29T00:45:15;99103.78;;;19.52;74.41
63552;BME280;49698;48.072;7.800;2022-07-29T00:47:44;99103.34;;;19.50;74.61
63552;BME280;49698;48.072;7.800;2022-07-29T00:50:12;99107.09;;;19.45;74.86
63552;BME280;49698;48.072;7.800;2022-07-29T00:52:41;99106.56;;;19.40;75.02
63552;BME280;49698;48.072;7.800;2022-07-29T00:55:11;99105.66;;;19.36;75.30
63552;BME280;49698;48.072;7.800;2022-07-29T00:57:41;99110.69;;;19.34;75.24
63552;BME280;49698;48.072;7.800;2022-07-29T01:00:12;99113.31;;;19.30;75.58
63552;BME280;49698;48.072;7.800;2022-07-29T01:02:40;99110.50;;;19.26;75.78
63552;BME280;49698;48.072;7.800;2022-07-29T01:05:11;99118.66;;;19.26;75.70
63552;BME280;49698;48.072;7.800;2022-07-29T01:07:41;99110.06;;;19.24;75.82
63552;BME280;49698;48.072;7.800;2022-07-29T01:10:10;99113.47;;;19.21;76.20
63552;BME280;49698;48.072;7.800;2022-07-29T01:12:42;99110.28;;;19.19;76.21
63552;BME280;49698;48.072;7.800;2022-07-29T01:15:11;99109.88;;;19.17;76.33
63552;BME280;49698;48.072;7.800;2022-07-29T01:17:43;99108.25;;;19.16;76.47
63552;BME280;49698;48.072;7.800;2022-07-29T01:20:16;99107.47;;;19.16;76.42
63552;BME280;49698;48.072;7.800;2022-07-29T01:26:06;99096.81;;;19.11;76.81
63552;BME280;49698;48.072;7.800;2022-07-29T01:28:49;99104.91;;;19.07;77.07
63552;BME280;49698;48.072;7.800;2022-07-29T01:31:25;99099.69;;;19.02;77.16
63552;BME280;49698;48.072;7.800;2022-07-29T01:33:58;99103.53;;;19.01;77.22
63552;BME280;49698;48.072;7.800;2022-07-29T01:36:32;99100.81;;;19.01;77.04
63552;BME280;49698;48.072;7.800;2022-07-29T01:39:06;99098.03;;;18.97;77.21
63552;BME280;49698;48.072;7.800;2022-07-29T01:41:40;99098.72;;;18.94;77.10
63552;BME280;49698;48.072;7.800;2022-07-29T01:44:15;99098.59;;;18.91;77.35
63552;BME280;49698;48.072;7.800;2022-07-29T01:46:49;99097.25;;;18.85;77.26
63552;BME280;49698;48.072;7.800;2022-07-29T01:49:22;99103.03;;;18.83;77.37
63552;BME280;49698;48.072;7.800;2022-07-29T01:51:54;99113.38;;;18.77;77.75
63552;BME280;49698;48.072;7.800;2022-07-29T01:54:30;99120.22;;;18.71;77.88
63552;BME280;49698;48.072;7.800;2022-07-29T01:57:00;99111.13;;;18.67;77.87
63552;BME280;49698;48.072;7.800;2022-07-29T01:59:33;99114.53;;;18.64;78.09
63552;BME280;49698;48.072;7.800;2022-07-29T02:02:02;99121.09;;;18.63;78.17
63552;BME280;49698;48.072;7.800;2022-07-29T02:04:33;99109.44;;;18.63;77.85
63552;BME280;49698;48.072;7.800;2022-07-29T02:07:05;99114.06;;;18.62;78.13
63552;BME280;49698;48.072;7.800;2022-07-29T02:09:35;99115.19;;;18.61;78.03
63552;BME280;49698;48.072;7.800;2022-07-29T02:12:06;99118.72;;;18.62;78.12
63552;BME280;49698;48.072;7.800;2022-07-29T02:14:39;99116.78;;;18.62;78.00
63552;BME280;49698;48.072;7.800;2022-07-29T02:17:08;99118.38;;;18.63;77.96
63552;BME280;49698;48.072;7.800;2022-07-29T02:19:39;99118.03;;;18.65;78.02
63552;BME280;49698;48.072;7.800;2022-07-29T02:22:08;99120.06;;;18.68;77.75
63552;BME280;49698;48.072;7.800;2022-07-29T02:24:38;99114.28;;;18.69;77.65
63552;BME280;49698;48.072;7.800;2022-07-29T02:27:08;99114.28;;;18.69;77.71
63552;BME280;49698;48.072;7.800;2022-07-29T02:29:39;99114.28;;;18.69;77.67
63552;BME280;49698;48.072;7.800;2022-07-29T02:32:09;99114.94;;;18.66;77.59
63552;BME280;49698;48.072;7.800;2022-07-29T02:34:39;99117.69;;;18.66;77.47
63552;BME280;49698;48.072;7.800;2022-07-29T02:37:10;99120.41;;;18.66;77.64
63552;BME280;49698;48.072;7.800;2022-07-29T02:39:41;99120.41;;;18.66;77.57
63552;BME280;49698;48.072;7.800;2022-07-29T02:42:13;99117.25;;;18.64;77.56
63552;BME280;49698;48.072;7.800;2022-07-29T02:44:43;99117.91;;;18.61;77.71
63552;BME280;49698;48.072;7.800;2022-07-29T02:47:16;99117.03;;;18.57;77.83
63552;BME280;49698;48.072;7.800;2022-07-29T02:49:52;99118.84;;;18.53;77.87
63552;BME280;49698;48.072;7.800;2022-07-29T02:52:26;99112.16;;;18.50;77.87
63552;BME280;49698;48.072;7.800;2022-07-29T02:54:56;99121.34;;;18.46;78.20
63552;BME280;49698;48.072;7.800;2022-07-29T02:57:32;99123.63;;;18.44;78.16
63552;BME280;49698;48.072;7.800;2022-07-29T03:00:06;99118.84;;;18.41;78.25
63552;BME280;49698;48.072;7.800;2022-07-29T03:02:37;99121.13;;;18.39;78.36
63552;BME280;49698;48.072;7.800;2022-07-29T03:05:08;99117.97;;;18.37;78.41
63552;BME280;49698;48.072;7.800;2022-07-29T03:07:39;99119.44;;;18.34;78.39
63552;BME280;49698;48.072;7.800;2022-07-29T03:10:08;99119.78;;;18.32;78.56
63552;BME280;49698;48.072;7.800;2022-07-29T03:12:36;99107.31;;;18.31;78.63
63552;BME280;49698;48.072;7.800;2022-07-29T03:15:07;99107.31;;;18.31;78.40
63552;BME280;49698;48.072;7.800;2022-07-29T03:17:36;99115.00;;;18.29;78.43
63552;BME280;49698;48.072;7.800;2022-07-29T03:20:07;99110.25;;;18.26;78.75
63552;BME280;49698;48.072;7.800;2022-07-29T03:22:39;99107.75;;;18.21;78.69
63552;BME280;49698;48.072;7.800;2022-07-29T03:25:11;99111.16;;;18.18;78.84
63552;BME280;49698;48.072;7.800;2022-07-29T03:27:39;99104.94;;;18.18;78.73
63552;BME280;49698;48.072;7.800;2022-07-29T03:30:09;99107.53;;;18.14;78.84
63552;BME280;49698;48.072;7.800;2022-07-29T03:32:38;99112.53;;;18.12;78.89
63552;BME280;49698;48.072;7.800;2022-07-29T03:35:07;99110.13;;;18.11;78.72
63552;BME280;49698;48.072;7.800;2022-07-29T03:37:35;99113.19;;;18.09;78.77
63552;BME280;49698;48.072;7.800;2022-07-29T03:40:07;99119.44;;;18.09;78.75
63552;BME280;49698;48.072;7.800;2022-07-29T03:42:38;99115.81;;;18.05;79.09
63552;BME280;49698;48.072;7.800;2022-07-29T03:45:12;99118.84;;;18.04;79.13
63552;BME280;49698;48.072;7.800;2022-07-29T03:47:45;99117.94;;;18.00;79.18
63552;BME280;49698;48.072;7.800;2022-07-29T03:50:15;99121.00;;;17.98;79.33
63552;BME280;49698;48.072;7.800;2022-07-29T03:52:46;99121.81;;;17.99;79.28
63552;BME280;49698;48.072;7.800;2022-07-29T03:55:15;99119.09;;;17.99;79.27
63552;BME280;49698;48.072;7.800;2022-07-29T03:57:45;99121.00;;;17.98;79.42
63552;BME280;49698;48.072;7.800;2022-07-29T04:00:15;99122.94;;;17.98;79.28
63552;BME280;49698;48.072;7.800;2022-07-29T04:02:44;99121.81;;;17.99;79.01
63552;BME280;49698;48.072;7.800;2022-07-29T04:05:15;99119.56;;;18.01;79.11
63552;BME280;49698;48.072;7.800;2022-07-29T04:07:44;99122.28;;;18.01;79.19
63552;BME280;49698;48.072;7.800;2022-07-29T04:10:12;99122.28;;;18.01;79.18
63552;BME280;49698;48.072;7.800;2022-07-29T04:12:42;99120.00;;;18.03;78.98
63552;BME280;49698;48.072;7.800;2022-07-29T04:15:10;99116.13;;;18.04;78.90
63552;BME280;49698;48.072;7.800;2022-07-29T04:17:40;99127.81;;;18.04;78.82
63552;BME280;49698;48.072;7.800;2022-07-29T04:20:09;99133.25;;;18.04;78.96
63552;BME280;49698;48.072;7.800;2022-07-29T04:22:39;99132.13;;;18.05;78.85
63552;BME280;49698;48.072;7.800;2022-07-29T04:25:08;99134.19;;;18.08;78.73
63552;BME280;49698;48.072;7.800;2022-07-29T04:27:36;99131.56;;;18.12;78.64
63552;BME280;49698;48.072;7.800;2022-07-29T04:30:24;99134.72;;;18.14;78.51
63552;BME280;49698;48.072;7.800;2022-07-29T04:32:53;99132.00;;;18.14;78.43
63552;BME280;49698;48.072;7.800;2022-07-29T04:35:21;99142.22;;;18.17;78.35
63552;BME280;49698;48.072;7.800;2022-07-29T04:37:49;99136.91;;;18.21;78.21
63552;BME280;49698;48.072;7.800;2022-07-29T04:40:17;99139.25;;;18.22;78.27
63552;BME280;49698;48.072;7.800;2022-07-29T04:42:45;99142.44;;;18.24;78.06
63552;BME280;49698;48.072;7.800;2022-07-29T04:45:14;99146.41;;;18.27;78.02
63552;BME280;49698;48.072;7.800;2022-07-29T04:47:42;99146.97;;;18.32;77.85
63552;BME280;49698;48.072;7.800;2022-07-29T04:50:11;99160.81;;;18.40;77.59
63552;BME280;49698;48.072;7.800;2022-07-29T04:52:40;99150.84;;;18.44;77.55
63552;BME280;49698;48.072;7.800;2022-07-29T04:55:08;99156.41;;;18.47;77.42
63552;BME280;49698;48.072;7.800;2022-07-29T04:57:37;99157.19;;;18.48;77.25
63552;BME280;49698;48.072;7.800;2022-07-29T05:00:06;99164.31;;;18.52;77.28
63552;BME280;49698;48.072;7.800;2022-07-29T05:02:34;99161.25;;;18.54;77.14
63552;BME280;49698;48.072;7.800;2022-07-29T05:05:03;99160.56;;;18.57;77.19
63552;BME280;49698;48.072;7.800;2022-07-29T05:07:32;99165.56;;;18.55;77.25
63552;BME280;49698;48.072;7.800;2022-07-29T05:10:00;99165.13;;;18.53;77.19
63552;BME280;49698;48.072;7.800;2022-07-29T05:12:28;99168.97;;;18.52;77.33
63552;BME280;49698;48.072;7.800;2022-07-29T05:14:56;99166.69;;;18.54;77.22
63552;BME280;49698;48.072;7.800;2022-07-29T05:17:24;99173.75;;;18.55;77.15
63552;BME280;49698;48.072;7.800;2022-07-29T05:19:52;99176.91;;;18.57;77.32
63552;BME280;49698;48.072;7.800;2022-07-29T05:22:21;99176.22;;;18.60;77.09
63552;BME280;49698;48.072;7.800;2022-07-29T05:24:50;99181.66;;;18.60;77.15
63552;BME280;49698;48.072;7.800;2022-07-29T05:27:18;99183.94;;;18.58;76.98
63552;BME280;49698;48.072;7.800;2022-07-29T05:29:46;99191.78;;;18.60;77.08
63552;BME280;49698;48.072;7.800;2022-07-29T05:32:14;99191.41;;;18.61;77.07
63552;BME280;49698;48.072;7.800;2022-07-29T05:34:42;99197.31;;;18.63;76.98
63552;BME280;49698;48.072;7.800;2022-07-29T05:37:10;99192.78;;;18.67;76.78
63552;BME280;49698;48.072;7.800;2022-07-29T05:39:40;99199.16;;;18.71;76.64
63552;BME280;49698;48.072;7.800;2022-07-29T05:42:09;99194.63;;;18.75;76.72
63552;BME280;49698;48.072;7.800;2022-07-29T05:44:37;99205.28;;;18.80;76.47
63552;BME280;49698;48.072;7.800;2022-07-29T05:47:05;99209.78;;;18.89;76.21
63552;BME280;49698;48.072;7.800;2022-07-29T05:49:34;99208.75;;;18.93;76.50
63552;BME280;49698;48.072;7.800;2022-07-29T05:52:02;99207.75;;;18.98;76.16
63552;BME280;49698;48.072;7.800;2022-07-29T05:54:30;99204.78;;;19.03;75.98
63552;BME280;49698;48.072;7.800;2022-07-29T05:56:58;99207.63;;;19.06;75.64
63552;BME280;49698;48.072;7.800;2022-07-29T05:59:27;99207.25;;;19.08;75.87
63552;BME280;49698;48.072;7.800;2022-07-29T06:01:56;99213.19;;;19.10;76.04
63552;BME280;49698;48.072;7.800;2022-07-29T06:04:24;99218.28;;;19.12;76.01
63552;BME280;49698;48.072;7.800;2022-07-29T06:06:52;99216.13;;;19.17;76.02
63552;BME280;49698;48.072;7.800;2022-07-29T06:09:20;99219.50;;;19.26;75.54
63552;BME280;49698;48.072;7.800;2022-07-29T06:11:49;99221.28;;;19.35;75.27
63552;BME280;49698;48.072;7.800;2022-07-29T06:14:17;99225.78;;;19.43;74.97
63552;BME280;49698;48.072;7.800;2022-07-29T06:16:46;99231.81;;;19.48;74.83
63552;BME280;49698;48.072;7.800;2022-07-29T06:19:14;99227.25;;;19.52;74.61
63552;BME280;49698;48.072;7.800;2022-07-29T06:21:42;99224.38;;;19.61;74.39
63552;BME280;49698;48.072;7.800;2022-07-29T06:24:10;99231.75;;;19.73;73.89
63552;BME280;49698;48.072;7.800;2022-07-29T06:26:39;99225.78;;;19.83;73.44
63552;BME280;49698;48.072;7.800;2022-07-29T06:29:08;99220.69;;;19.97;72.90
63552;BME280;49698;48.072;7.800;2022-07-29T06:31:37;99228.09;;;20.13;72.29
63552;BME280;49698;48.072;7.800;2022-07-29T06:34:06;99222.66;;;20.28;71.88
63552;BME280;49698;48.072;7.800;2022-07-29T06:36:35;99220.19;;;20.39;71.58
63552;BME280;49698;48.072;7.800;2022-07-29T06:39:04;99222.75;;;20.48;71.31
63552;BME280;49698;48.072;7.800;2022-07-29T06:41:33;99227.53;;;20.51;71.13
63552;BME280;49698;48.072;7.800;2022-07-29T06:44:08;99228.50;;;20.59;70.77
63552;BME280;49698;48.072;7.800;2022-07-29T06:46:36;99227.44;;;20.63;70.59
63552;BME280;49698;48.072;7.800;2022-07-29T06:49:04;99226.91;;;20.73;70.28
63552;BME280;49698;48.072;7.800;2022-07-29T06:51:34;99231.38;;;20.82;69.87
63552;BME280;49698;48.072;7.800;2022-07-29T06:54:02;99233.13;;;20.90;69.74
63552;BME280;49698;48.072;7.800;2022-07-29T06:56:33;99236.91;;;21.01;69.17
63552;BME280;49698;48.072;7.800;2022-07-29T06:59:02;99234.81;;;21.14;68.49
63552;BME280;49698;48.072;7.800;2022-07-29T07:01:30;99228.88;;;21.28;67.79
63552;BME280;49698;48.072;7.800;2022-07-29T07:03:58;99234.31;;;21.43;67.22
63552;BME280;49698;48.072;7.800;2022-07-29T07:06:26;99237.22;;;21.51;67.00
63552;BME280;49698;48.072;7.800;2022-07-29T07:08:55;99247.91;;;21.59;66.17
63552;BME280;49698;48.072;7.800;2022-07-29T07:11:23;99249.56;;;21.64;65.68
63552;BME280;49698;48.072;7.800;2022-07-29T07:13:51;99242.75;;;21.73;64.74
63552;BME280;49698;48.072;7.800;2022-07-29T07:16:20;99253.91;;;21.84;64.11
63552;BME280;49698;48.072;7.800;2022-07-29T07:18:48;99259.28;;;22.00;63.12
63552;BME280;49698;48.072;7.800;2022-07-29T07:21:16;99265.47;;;22.16;61.67
63552;BME280;49698;48.072;7.800;2022-07-29T07:23:44;99259.09;;;22.32;61.14
63552;BME280;49698;48.072;7.800;2022-07-29T07:26:13;99260.84;;;22.43;60.55
63552;BME280;49698;48.072;7.800;2022-07-29T07:28:41;99266.09;;;22.52;60.13
63552;BME280;49698;48.072;7.800;2022-07-29T07:31:09;99273.13;;;22.76;59.19
63552;BME280;49698;48.072;7.800;2022-07-29T07:33:37;99268.06;;;23.01;58.61
63552;BME280;49698;48.072;7.800;2022-07-29T07:36:05;99271.47;;;23.21;58.10
63552;BME280;49698;48.072;7.800;2022-07-29T07:38:33;99275.44;;;23.24;57.91
63552;BME280;49698;48.072;7.800;2022-07-29T07:41:02;99275.34;;;23.16;57.51
63552;BME280;49698;48.072;7.800;2022-07-29T07:43:32;99282.28;;;23.10;57.73
63552;BME280;49698;48.072;7.800;2022-07-29T07:46:00;99286.66;;;23.15;57.47
63552;BME280;49698;48.072;7.800;2022-07-29T07:48:29;99285.25;;;23.25;57.24
63552;BME280;49698;48.072;7.800;2022-07-29T07:50:57;99289.34;;;23.38;57.06
63552;BME280;49698;48.072;7.800;2022-07-29T07:53:25;99286.00;;;23.52;56.40
63552;BME280;49698;48.072;7.800;2022-07-29T07:55:52;99284.19;;;23.63;56.17
63552;BME280;49698;48.072;7.800;2022-07-29T07:58:38;99284.97;;;23.63;56.11
63552;BME280;49698;48.072;7.800;2022-07-29T08:01:06;99284.03;;;23.52;56.18
63552;BME280;49698;48.072;7.800;2022-07-29T08:03:35;99285.94;;;23.48;56.63
63552;BME280;49698;48.072;7.800;2022-07-29T08:06:04;99283.94;;;23.45;56.85
63552;BME280;49698;48.072;7.800;2022-07-29T08:08:32;99281.63;;;23.47;56.64
63552;BME280;49698;48.072;7.800;2022-07-29T08:11:00;99285.63;;;23.53;56.72
63552;BME280;49698;48.072;7.800;2022-07-29T08:13:33;99278.66;;;23.59;56.44
63552;BME280;49698;48.072;7.800;2022-07-29T08:16:03;99286.63;;;23.68;56.34
63552;BME280;49698;48.072;7.800;2022-07-29T08:18:39;99285.53;;;23.76;56.14
63552;BME280;49698;48.072;7.800;2022-07-29T08:21:07;99283.28;;;23.82;56.11
63552;BME280;49698;48.072;7.800;2022-07-29T08:23:35;99281.09;;;23.98;55.93
63552;BME280;49698;48.072;7.800;2022-07-29T08:26:08;99274.94;;;24.08;55.58
63552;BME280;49698;48.072;7.800;2022-07-29T08:28:37;99279.66;;;24.11;55.73
63552;BME280;49698;48.072;7.800;2022-07-29T08:31:06;99283.97;;;24.09;55.40
63552;BME280;49698;48.072;7.800;2022-07-29T08:33:34;99285.94;;;24.08;55.53
63552;BME280;49698;48.072;7.800;2022-07-29T08:36:02;99278.50;;;24.12;55.12
63552;BME280;49698;48.072;7.800;2022-07-29T08:38:30;99279.72;;;24.19;54.95
63552;BME280;49698;48.072;7.800;2022-07-29T08:41:00;99281.38;;;24.27;54.67
63552;BME280;49698;48.072;7.800;2022-07-29T08:43:31;99282.28;;;24.38;54.53
63552;BME280;49698;48.072;7.800;2022-07-29T08:46:01;99283.56;;;24.44;54.55
63552;BME280;49698;48.072;7.800;2022-07-29T08:48:32;99286.38;;;24.51;54.10
63552;BME280;49698;48.072;7.800;2022-07-29T08:51:02;99287.22;;;24.62;53.97
63552;BME280;49698;48.072;7.800;2022-07-29T08:53:40;99284.16;;;24.68;53.50
63552;BME280;49698;48.072;7.800;2022-07-29T08:56:34;99286.13;;;24.71;53.63
63552;BME280;49698;48.072;7.800;2022-07-29T08:59:03;99281.44;;;24.71;53.30
63552;BME280;49698;48.072;7.800;2022-07-29T09:01:33;99282.25;;;24.75;53.23
63552;BME280;49698;48.072;7.800;2022-07-29T09:04:06;99283.81;;;24.76;53.44
63552;BME280;49698;48.072;7.800;2022-07-29T09:06:42;99277.94;;;24.78;53.39
63552;BME280;49698;48.072;7.800;2022-07-29T09:09:11;99270.88;;;24.80;53.74
63552;BME280;49698;48.072;7.800;2022-07-29T09:11:41;99276.00;;;24.82;53.68
63552;BME280;49698;48.072;7.800;2022-07-29T09:14:11;99280.69;;;24.78;53.77
63552;BME280;49698;48.072;7.800;2022-07-29T09:16:51;99279.09;;;24.77;53.33
63552;BME280;49698;48.072;7.800;2022-07-29T09:19:22;99287.75;;;24.75;53.57
63552;BME280;49698;48.072;7.800;2022-07-29T09:21:51;99275.53;;;24.73;53.59
63552;BME280;49698;48.072;7.800;2022-07-29T09:24:35;99270.78;;;24.70;53.41
63552;BME280;49698;48.072;7.800;2022-07-29T09:27:09;99269.97;;;24.65;53.34
63552;BME280;49698;48.072;7.800;2022-07-29T09:29:38;99273.47;;;24.62;53.37
63552;BME280;49698;48.072;7.800;2022-07-29T09:32:09;99273.47;;;24.62;53.45
63552;BME280;49698;48.072;7.800;2022-07-29T09:34:39;99277.44;;;24.65;53.69
63552;BME280;49698;48.072;7.800;2022-07-29T09:37:07;99274.72;;;24.69;53.79
63552;BME280;49698;48.072;7.800;2022-07-29T09:39:36;99281.81;;;24.73;53.63
63552;BME280;49698;48.072;7.800;2022-07-29T09:42:12;99288.56;;;24.79;53.86
63552;BME280;49698;48.072;7.800;2022-07-29T09:44:42;99290.16;;;24.84;53.79
63552;BME280;49698;48.072;7.800;2022-07-29T09:47:10;99287.00;;;24.82;53.32
63552;BME280;49698;48.072;7.800;2022-07-29T09:49:53;99286.22;;;24.85;53.00
63552;BME280;49698;48.072;7.800;2022-07-29T09:52:24;99287.03;;;24.89;52.62
63552;BME280;49698;48.072;7.800;2022-07-29T09:54:53;99291.03;;;24.95;52.53
63552;BME280;49698;48.072;7.800;2022-07-29T09:57:24;99286.38;;;25.03;52.14
63552;BME280;49698;48.072;7.800;2022-07-29T09:59:57;99285.59;;;25.06;52.34
63552;BME280;49698;48.072;7.800;2022-07-29T10:02:29;99286.78;;;25.08;51.30
63552;BME280;49698;48.072;7.800;2022-07-29T10:05:00;99281.81;;;25.21;50.75
63552;BME280;49698;48.072;7.800;2022-07-29T10:07:46;99281.50;;;25.37;50.33
63552;BME280;49698;48.072;7.800;2022-07-29T10:10:22;99274.41;;;25.40;50.04
63552;BME280;49698;48.072;7.800;2022-07-29T10:12:52;99275.63;;;25.42;49.82
63552;BME280;49698;48.072;7.800;2022-07-29T10:15:23;99269.34;;;25.45;49.40
63552;BME280;49698;48.072;7.800;2022-07-29T10:17:52;99272.16;;;25.52;49.42
63552;BME280;49698;48.072;7.800;2022-07-29T10:20:23;99267.84;;;25.62;49.15
63552;BME280;49698;48.072;7.800;2022-07-29T10:22:52;99264.72;;;25.71;49.07
63552;BME280;49698;48.072;7.800;2022-07-29T10:25:21;99264.81;;;25.85;48.64
63552;BME280;49698;48.072;7.800;2022-07-29T10:27:50;99270.34;;;25.96;48.36
63552;BME280;49698;48.072;7.800;2022-07-29T10:30:20;99261.72;;;26.01;47.74
63552;BME280;49698;48.072;7.800;2022-07-29T10:33:13;99258.16;;;26.00;47.12
63552;BME280;49698;48.072;7.800;2022-07-29T10:35:57;99268.81;;;25.98;46.91
63552;BME280;49698;48.072;7.800;2022-07-29T10:38:43;99268.78;;;26.02;46.88
63552;BME280;49698;48.072;7.800;2022-07-29T10:41:33;99265.66;;;26.07;46.81
63552;BME280;49698;48.072;7.800;2022-07-29T10:44:07;99268.81;;;26.13;46.52
63552;BME280;49698;48.072;7.800;2022-07-29T10:46:40;99271.97;;;26.15;46.18
63552;BME280;49698;48.072;7.800;2022-07-29T10:49:11;99276.69;;;26.14;45.90
63552;BME280;49698;48.072;7.800;2022-07-29T10:52:02;99280.25;;;26.15;45.37
63552;BME280;49698;48.072;7.800;2022-07-29T10:54:47;99270.78;;;26.08;45.55
63552;BME280;49698;48.072;7.800;2022-07-29T10:57:20;99273.53;;;26.05;45.52
63552;BME280;49698;48.072;7.800;2022-07-29T10:59:49;99272.75;;;26.12;45.38
63552;BME280;49698;48.072;7.800;2022-07-29T11:02:42;99272.38;;;26.24;45.11
63552;BME280;49698;48.072;7.800;2022-07-29T11:05:13;99274.38;;;26.34;44.80
63552;BME280;49698;48.072;7.800;2022-07-29T11:08:18;99272.03;;;26.47;44.61
63552;BME280;49698;48.072;7.800;2022-07-29T11:10:48;99278.34;;;26.54;44.29
63552;BME280;49698;48.072;7.800;2022-07-29T11:16:24;99272.84;;;26.54;43.50
63552;BME280;49698;48.072;7.800;2022-07-29T11:19:20;99276.78;;;26.61;43.38
63552;BME280;49698;48.072;7.800;2022-07-29T11:21:49;99278.72;;;26.71;43.03
63552;BME280;49698;48.072;7.800;2022-07-29T11:24:21;99278.34;;;26.76;42.64
63552;BME280;49698;48.072;7.800;2022-07-29T11:27:09;99284.25;;;26.78;42.51
63552;BME280;49698;48.072;7.800;2022-07-29T11:29:40;99275.97;;;26.71;42.40
63552;BME280;49698;48.072;7.800;2022-07-29T11:32:16;99277.56;;;26.72;42.35
63552;BME280;49698;48.072;7.800;2022-07-29T11:34:47;99279.13;;;26.69;42.50
63552;BME280;49698;48.072;7.800;2022-07-29T11:37:23;99274.81;;;26.68;43.11
63552;BME280;49698;48.072;7.800;2022-07-29T11:40:15;99280.72;;;26.67;43.48
63552;BME280;49698;48.072;7.800;2022-07-29T11:42:45;99285.84;;;26.65;43.92
63552;BME280;49698;48.072;7.800;2022-07-29T11:45:16;99273.63;;;26.58;44.21
63552;BME280;49698;48.072;7.800;2022-07-29T11:47:50;99271.25;;;26.53;44.41
63552;BME280;49698;48.072;7.800;2022-07-29T11:50:31;99278.34;;;26.47;44.44
63552;BME280;49698;48.072;7.800;2022-07-29T11:53:01;99279.09;;;26.44;44.23
63552;BME280;49698;48.072;7.800;2022-07-29T11:55:31;99272.00;;;26.43;44.51
63552;BME280;49698;48.072;7.800;2022-07-29T11:58:02;99279.91;;;26.41;44.55
63552;BME280;49698;48.072;7.800;2022-07-29T12:00:32;99277.50;;;26.40;44.90
63552;BME280;49698;48.072;7.800;2022-07-29T12:03:02;99280.66;;;26.38;44.76
63552;BME280;49698;48.072;7.800;2022-07-29T12:05:33;99284.59;;;26.41;44.62
63552;BME280;49698;48.072;7.800;2022-07-29T12:08:20;99279.88;;;26.38;44.78
63552;BME280;49698;48.072;7.800;2022-07-29T12:10:51;99281.44;;;26.31;44.83
63552;BME280;49698;48.072;7.800;2022-07-29T12:13:20;99287.75;;;26.32;45.02
63552;BME280;49698;48.072;7.800;2022-07-29T12:15:52;99286.16;;;26.31;44.87
63552;BME280;49698;48.072;7.800;2022-07-29T12:18:21;99288.53;;;26.36;44.70
63552;BME280;49698;48.072;7.800;2022-07-29T12:20:56;99286.19;;;26.38;44.45
63552;BME280;49698;48.072;7.800;2022-07-29T12:23:25;99295.22;;;26.39;44.45
63552;BME280;49698;48.072;7.800;2022-07-29T12:25:54;99294.03;;;26.36;44.40
63552;BME280;49698;48.072;7.800;2022-07-29T12:28:22;99289.31;;;26.29;44.29
63552;BME280;49698;48.072;7.800;2022-07-29T12:30:51;99297.97;;;26.31;44.21
63552;BME280;49698;48.072;7.800;2022-07-29T12:33:21;99303.88;;;26.30;44.53
63552;BME280;49698;48.072;7.800;2022-07-29T12:35:51;99306.22;;;26.28;44.69
63552;BME280;49698;48.072;7.800;2022-07-29T12:38:29;99302.69;;;26.27;44.88
63552;BME280;49698;48.072;7.800;2022-07-29T12:40:59;99300.34;;;26.22;45.48
63552;BME280;49698;48.072;7.800;2022-07-29T12:43:27;99301.09;;;26.19;45.68
63552;BME280;49698;48.072;7.800;2022-07-29T12:45:56;99303.47;;;26.21;46.05
63552;BME280;49698;48.072;7.800;2022-07-29T12:48:34;99307.81;;;26.18;46.10
63552;BME280;49698;48.072;7.800;2022-07-29T12:51:04;99307.41;;;26.20;46.21
63552;BME280;49698;48.072;7.800;2022-07-29T12:53:33;99314.50;;;26.24;46.40
63552;BME280;49698;48.072;7.800;2022-07-29T12:56:04;99310.16;;;26.20;46.49
63552;BME280;49698;48.072;7.800;2022-07-29T12:58:41;99302.31;;;26.22;46.40
63552;BME280;49698;48.072;7.800;2022-07-29T13:01:14;99300.34;;;26.22;46.18
63552;BME280;49698;48.072;7.800;2022-07-29T13:03:45;99296.00;;;26.18;45.80
63552;BME280;49698;48.072;7.800;2022-07-29T13:06:31;99294.00;;;26.15;45.66
63552;BME280;49698;48.072;7.800;2022-07-29T13:09:03;99296.78;;;26.18;45.75
63552;BME280;49698;48.072;7.800;2022-07-29T13:11:33;99283.03;;;26.22;45.48
63552;BME280;49698;48.072;7.800;2022-07-29T13:14:06;99285.38;;;26.27;45.58
63552;BME280;49698;48.072;7.800;2022-07-29T13:16:35;99284.59;;;26.26;45.53
63552;BME280;49698;48.072;7.800;2022-07-29T13:19:09;99276.72;;;26.28;45.42
63552;BME280;49698;48.072;7.800;2022-07-29T13:21:39;99275.56;;;26.33;45.26
63552;BME280;49698;48.072;7.800;2022-07-29T13:24:07;99277.91;;;26.34;45.35
63552;BME280;49698;48.072;7.800;2022-07-29T13:26:40;99283.44;;;26.38;45.35